sensor_id;sensor_type;location;lat;lon;timestamp;P1;durP1;ratioP1;P2;durP2;ratioP2
14472;SDS011;7322;50.872;4.386;2023-07-29T00:00:00;2.22;;;1.45;;
14472;SDS011;7322;50.872;4.386;2023-07-29T00:02:28;1.63;;;1.40;;
14472;SDS011;7322;50.872;4.386;2023-07-29T00:04:56;1.95;;;1.30;;
14472;SDS011;7322;50.872;4.386;2023-07-29T00:07:22;1.33;;;1.23;;
14472;SDS011;7322;50.872;4.386;2023-07-29T00:09:49;1.88;;;1.40;;
14472;SDS011;7322;50.872;4.386;2023-07-29T00:12:16;1.55;;;1.20;;
14472;SDS011;7322;50.872;4.386;2023-07-29T00:14:43;1.75;;;1.38;;
14472;SDS011;7322;50.872;4.386;2023-07-29T00:17:12;1.90;;;1.40;;
14472;SDS011;7322;50.872;4.386;2023-07-29T00:19:39;2.90;;;1.55;;
14472;SDS011;7322;50.872;4.386;2023-07-29T00:22:06;1.85;;;1.55;;
14472;SDS011;7322;50.872;4.386;2023-07-29T00:24:33;1.83;;;1.27;;
14472;SDS011;7322;50.872;4.386;2023-07-29T00:27:00;3.05;;;1.30;;
14472;SDS011;7322;50.872;4.386;2023-07-29T00:29:27;1.38;;;1.27;;
14472;SDS011;7322;50.872;4.386;2023-07-29T00:31:54;1.40;;;1.23;;
14472;SDS011;7322;50.872;4.386;2023-07-29T00:34:22;1.63;;;1.40;;
14472;SDS011;7322;50.872;4.386;2023-07-29T00:36:49;1.00;;;1.00;;
14472;SDS011;7322;50.872;4.386;2023-07-29T00:39:17;2.05;;;1.30;;
14472;SDS011;7322;50.872;4.386;2023-07-29T00:41:44;1.90;;;1.20;;
14472;SDS011;7322;50.872;4.386;2023-07-29T00:44:11;1.70;;;1.40;;
14472;SDS011;7322;50.872;4.386;2023-07-29T00:46:38;1.67;;;1.27;;
14472;SDS011;7322;50.872;4.386;2023-07-29T00:49:07;2.72;;;1.48;;
14472;SDS011;7322;50.872;4.386;2023-07-29T00:51:36;1.20;;;1.10;;
14472;SDS011;7322;50.872;4.386;2023-07-29T00:54:03;1.48;;;1.20;;
14472;SDS011;7322;50.872;4.386;2023-07-29T00:56:30;2.75;;;1.20;;
14472;SDS011;7322;50.872;4.386;2023-07-29T00:58:57;2.65;;;1.20;;
14472;SDS011;7322;50.872;4.386;2023-07-29T01:01:26;1.73;;;1.30;;
14472;SDS011;7322;50.872;4.386;2023-07-29T01:03:54;2.42;;;1.30;;
14472;SDS011;7322;50.872;4.386;2023-07-29T01:06:23;1.40;;;1.30;;
14472;SDS011;7322;50.872;4.386;2023-07-29T01:08:59;1.40;;;1.30;;
14472;SDS011;7322;50.872;4.386;2023-07-29T01:11:33;1.80;;;1.30;;
14472;SDS011;7322;50.872;4.386;2023-07-29T01:14:10;2.17;;;1.30;;
14472;SDS011;7322;50.872;4.386;2023-07-29T01:16:49;1.83;;;1.33;;
14472;SDS011;7322;50.872;4.386;2023-07-29T01:19:20;1.67;;;1.15;;
14472;SDS011;7322;50.872;4.386;2023-07-29T01:22:02;1.20;;;1.00;;
14472;SDS011;7322;50.872;4.386;2023-07-29T01:24:31;1.58;;;1.15;;
14472;SDS011;7322;50.872;4.386;2023-07-29T01:26:58;1.23;;;1.10;;
14472;SDS011;7322;50.872;4.386;2023-07-29T01:29:27;2.38;;;1.08;;
14472;SDS011;7322;50.872;4.386;2023-07-29T01:31:55;1.30;;;1.20;;
14472;SDS011;7322;50.872;4.386;2023-07-29T01:34:26;2.08;;;0.88;;
14472;SDS011;7322;50.872;4.386;2023-07-29T01:36:57;1.45;;;1.17;;
14472;SDS011;7322;50.872;4.386;2023-07-29T01:39:27;1.83;;;0.98;;
14472;SDS011;7322;50.872;4.386;2023-07-29T01:42:00;2.28;;;1.33;;
14472;SDS011;7322;50.872;4.386;2023-07-29T01:44:28;2.25;;;1.30;;
14472;SDS011;7322;50.872;4.386;2023-07-29T01:46:55;1.30;;;1.10;;
14472;SDS011;7322;50.872;4.386;2023-07-29T01:49:22;1.67;;;1.17;;
14472;SDS011;7322;50.872;4.386;2023-07-29T01:51:49;1.50;;;1.40;;
14472;SDS011;7322;50.872;4.386;2023-07-29T01:54:16;1.98;;;1.20;;
14472;SDS011;7322;50.872;4.386;2023-07-29T01:56:43;2.88;;;1.20;;
14472;SDS011;7322;50.872;4.386;2023-07-29T01:59:11;1.50;;;1.38;;
14472;SDS011;7322;50.872;4.386;2023-07-29T02:01:39;1.83;;;1.30;;
14472;SDS011;7322;50.872;4.386;2023-07-29T02:04:06;1.52;;;1.35;;
14472;SDS011;7322;50.872;4.386;2023-07-29T02:06:33;1.65;;;1.55;;
14472;SDS011;7322;50.872;4.386;2023-07-29T02:08:59;1.60;;;1.20;;
14472;SDS011;7322;50.872;4.386;2023-07-29T02:11:27;2.05;;;1.40;;
14472;SDS011;7322;50.872;4.386;2023-07-29T02:13:54;2.70;;;1.30;;
14472;SDS011;7322;50.872;4.386;2023-07-29T02:16:23;2.08;;;1.50;;
14472;SDS011;7322;50.872;4.386;2023-07-29T02:18:50;3.35;;;1.40;;
14472;SDS011;7322;50.872;4.386;2023-07-29T02:21:17;1.35;;;1.23;;
14472;SDS011;7322;50.872;4.386;2023-07-29T02:23:44;1.80;;;1.48;;
14472;SDS011;7322;50.872;4.386;2023-07-29T02:26:11;1.40;;;1.30;;
14472;SDS011;7322;50.872;4.386;2023-07-29T02:28:38;3.80;;;1.50;;
14472;SDS011;7322;50.872;4.386;2023-07-29T02:31:14;2.00;;;1.40;;
14472;SDS011;7322;50.872;4.386;2023-07-29T02:33:44;1.98;;;1.50;;
14472;SDS011;7322;50.872;4.386;2023-07-29T02:36:13;2.70;;;1.30;;
14472;SDS011;7322;50.872;4.386;2023-07-29T02:38:40;1.55;;;1.40;;
14472;SDS011;7322;50.872;4.386;2023-07-29T02:41:07;2.10;;;1.27;;
14472;SDS011;7322;50.872;4.386;2023-07-29T02:43:36;2.10;;;1.40;;
14472;SDS011;7322;50.872;4.386;2023-07-29T02:46:03;1.75;;;1.27;;
14472;SDS011;7322;50.872;4.386;2023-07-29T02:48:30;1.63;;;1.40;;
14472;SDS011;7322;50.872;4.386;2023-07-29T02:50:58;1.60;;;1.38;;
14472;SDS011;7322;50.872;4.386;2023-07-29T02:53:25;1.48;;;1.20;;
14472;SDS011;7322;50.872;4.386;2023-07-29T02:55:52;2.20;;;1.42;;
14472;SDS011;7322;50.872;4.386;2023-07-29T02:58:19;2.15;;;1.30;;
14472;SDS011;7322;50.872;4.386;2023-07-29T03:00:46;2.17;;;1.50;;
14472;SDS011;7322;50.872;4.386;2023-07-29T03:03:14;2.38;;;1.52;;
14472;SDS011;7322;50.872;4.386;2023-07-29T03:05:40;1.83;;;1.10;;
14472;SDS011;7322;50.872;4.386;2023-07-29T03:08:09;3.42;;;1.50;;
14472;SDS011;7322;50.872;4.386;2023-07-29T03:10:36;1.35;;;1.25;;
14472;SDS011;7322;50.872;4.386;2023-07-29T03:13:03;2.08;;;1.27;;
14472;SDS011;7322;50.872;4.386;2023-07-29T03:15:31;1.42;;;1.30;;
14472;SDS011;7322;50.872;4.386;2023-07-29T03:17:59;2.05;;;1.30;;
14472;SDS011;7322;50.872;4.386;2023-07-29T03:20:26;1.70;;;1.20;;
14472;SDS011;7322;50.872;4.386;2023-07-29T03:22:53;1.38;;;1.17;;
14472;SDS011;7322;50.872;4.386;2023-07-29T03:25:21;1.75;;;1.33;;
14472;SDS011;7322;50.872;4.386;2023-07-29T03:27:48;1.88;;;1.40;;
14472;SDS011;7322;50.872;4.386;2023-07-29T03:30:18;1.15;;;1.08;;
14472;SDS011;7322;50.872;4.386;2023-07-29T03:32:45;3.72;;;1.50;;
14472;SDS011;7322;50.872;4.386;2023-07-29T03:35:13;1.67;;;1.33;;
14472;SDS011;7322;50.872;4.386;2023-07-29T03:37:40;2.40;;;1.50;;
14472;SDS011;7322;50.872;4.386;2023-07-29T03:40:07;1.90;;;1.27;;
14472;SDS011;7322;50.872;4.386;2023-07-29T03:42:36;1.70;;;1.20;;
14472;SDS011;7322;50.872;4.386;2023-07-29T03:45:04;2.95;;;1.38;;
14472;SDS011;7322;50.872;4.386;2023-07-29T03:47:31;1.35;;;1.13;;
14472;SDS011;7322;50.872;4.386;2023-07-29T03:49:58;2.60;;;1.40;;
14472;SDS011;7322;50.872;4.386;2023-07-29T03:52:25;1.30;;;1.20;;
14472;SDS011;7322;50.872;4.386;2023-07-29T03:54:52;1.90;;;1.20;;
14472;SDS011;7322;50.872;4.386;2023-07-29T03:57:19;1.35;;;1.23;;
14472;SDS011;7322;50.872;4.386;2023-07-29T03:59:48;2.30;;;1.38;;
14472;SDS011;7322;50.872;4.386;2023-07-29T04:02:15;1.52;;;1.30;;
14472;SDS011;7322;50.872;4.386;2023-07-29T04:04:42;2.40;;;1.27;;
14472;SDS011;7322;50.872;4.386;2023-07-29T04:07:12;1.70;;;1.33;;
14472;SDS011;7322;50.872;4.386;2023-07-29T04:09:39;2.85;;;1.40;;
14472;SDS011;7322;50.872;4.386;2023-07-29T04:12:08;2.08;;;1.48;;
14472;SDS011;7322;50.872;4.386;2023-07-29T04:14:35;2.13;;;1.20;;
14472;SDS011;7322;50.872;4.386;2023-07-29T04:17:04;2.15;;;1.20;;
14472;SDS011;7322;50.872;4.386;2023-07-29T04:19:31;1.23;;;1.10;;
14472;SDS011;7322;50.872;4.386;2023-07-29T04:21:58;1.55;;;1.42;;
14472;SDS011;7322;50.872;4.386;2023-07-29T04:24:25;5.70;;;1.60;;
14472;SDS011;7322;50.872;4.386;2023-07-29T04:26:52;2.05;;;1.15;;
14472;SDS011;7322;50.872;4.386;2023-07-29T04:29:19;1.40;;;1.20;;
14472;SDS011;7322;50.872;4.386;2023-07-29T04:31:47;2.25;;;1.40;;
14472;SDS011;7322;50.872;4.386;2023-07-29T04:34:17;2.30;;;1.35;;
14472;SDS011;7322;50.872;4.386;2023-07-29T04:36:45;3.38;;;1.40;;
14472;SDS011;7322;50.872;4.386;2023-07-29T04:39:12;1.27;;;1.17;;
14472;SDS011;7322;50.872;4.386;2023-07-29T04:41:39;2.53;;;1.48;;
14472;SDS011;7322;50.872;4.386;2023-07-29T04:44:06;1.40;;;1.30;;
14472;SDS011;7322;50.872;4.386;2023-07-29T04:46:33;1.65;;;1.30;;
14472;SDS011;7322;50.872;4.386;2023-07-29T04:49:00;1.58;;;1.38;;
14472;SDS011;7322;50.872;4.386;2023-07-29T04:51:29;2.20;;;1.30;;
14472;SDS011;7322;50.872;4.386;2023-07-29T04:53:57;2.50;;;1.10;;
14472;SDS011;7322;50.872;4.386;2023-07-29T04:56:24;1.27;;;1.10;;
14472;SDS011;7322;50.872;4.386;2023-07-29T04:58:51;1.42;;;1.27;;
14472;SDS011;7322;50.872;4.386;2023-07-29T05:01:19;1.60;;;1.13;;
14472;SDS011;7322;50.872;4.386;2023-07-29T05:03:46;1.60;;;1.33;;
14472;SDS011;7322;50.872;4.386;2023-07-29T05:06:13;1.40;;;1.30;;
14472;SDS011;7322;50.872;4.386;2023-07-29T05:08:41;2.53;;;1.33;;
14472;SDS011;7322;50.872;4.386;2023-07-29T05:11:09;1.42;;;1.10;;
14472;SDS011;7322;50.872;4.386;2023-07-29T05:13:36;4.22;;;2.28;;
14472;SDS011;7322;50.872;4.386;2023-07-29T05:16:10;2.75;;;1.67;;
14472;SDS011;7322;50.872;4.386;2023-07-29T05:18:39;2.15;;;1.20;;
14472;SDS011;7322;50.872;4.386;2023-07-29T05:21:09;1.65;;;1.20;;
14472;SDS011;7322;50.872;4.386;2023-07-29T05:23:44;1.50;;;1.40;;
14472;SDS011;7322;50.872;4.386;2023-07-29T05:28:42;2.15;;;1.30;;
14472;SDS011;7322;50.872;4.386;2023-07-29T05:31:10;1.45;;;1.20;;
14472;SDS011;7322;50.872;4.386;2023-07-29T05:33:39;2.95;;;1.30;;
14472;SDS011;7322;50.872;4.386;2023-07-29T05:36:06;4.13;;;1.30;;
14472;SDS011;7322;50.872;4.386;2023-07-29T05:38:35;3.38;;;1.25;;
14472;SDS011;7322;50.872;4.386;2023-07-29T05:41:05;2.15;;;1.30;;
14472;SDS011;7322;50.872;4.386;2023-07-29T05:43:39;1.77;;;1.35;;
14472;SDS011;7322;50.872;4.386;2023-07-29T05:46:08;1.63;;;1.10;;
14472;SDS011;7322;50.872;4.386;2023-07-29T05:48:38;1.95;;;1.58;;
14472;SDS011;7322;50.872;4.386;2023-07-29T05:51:05;3.35;;;1.30;;
14472;SDS011;7322;50.872;4.386;2023-07-29T05:53:32;3.45;;;1.30;;
14472;SDS011;7322;50.872;4.386;2023-07-29T05:55:59;1.77;;;1.40;;
14472;SDS011;7322;50.872;4.386;2023-07-29T05:58:34;1.67;;;1.58;;
14472;SDS011;7322;50.872;4.386;2023-07-29T06:01:01;1.75;;;1.40;;
14472;SDS011;7322;50.872;4.386;2023-07-29T06:03:28;1.63;;;1.20;;
14472;SDS011;7322;50.872;4.386;2023-07-29T06:05:55;1.75;;;1.40;;
14472;SDS011;7322;50.872;4.386;2023-07-29T06:08:22;2.55;;;1.50;;
14472;SDS011;7322;50.872;4.386;2023-07-29T06:10:49;2.05;;;1.40;;
14472;SDS011;7322;50.872;4.386;2023-07-29T06:13:17;2.13;;;1.63;;
14472;SDS011;7322;50.872;4.386;2023-07-29T06:15:45;1.77;;;1.40;;
14472;SDS011;7322;50.872;4.386;2023-07-29T06:18:12;2.60;;;1.55;;
14472;SDS011;7322;50.872;4.386;2023-07-29T06:20:39;3.38;;;1.40;;
14472;SDS011;7322;50.872;4.386;2023-07-29T06:23:07;3.00;;;1.50;;
14472;SDS011;7322;50.872;4.386;2023-07-29T06:25:35;2.05;;;1.35;;
14472;SDS011;7322;50.872;4.386;2023-07-29T06:28:03;2.10;;;1.50;;
14472;SDS011;7322;50.872;4.386;2023-07-29T06:30:30;1.60;;;1.40;;
14472;SDS011;7322;50.872;4.386;2023-07-29T06:32:58;1.88;;;1.42;;
14472;SDS011;7322;50.872;4.386;2023-07-29T06:35:26;1.77;;;1.33;;
14472;SDS011;7322;50.872;4.386;2023-07-29T06:37:53;2.72;;;1.50;;
14472;SDS011;7322;50.872;4.386;2023-07-29T06:40:20;2.72;;;1.70;;
14472;SDS011;7322;50.872;4.386;2023-07-29T06:42:47;1.63;;;1.23;;
14472;SDS011;7322;50.872;4.386;2023-07-29T06:45:15;2.10;;;1.70;;
14472;SDS011;7322;50.872;4.386;2023-07-29T06:47:43;1.42;;;1.30;;
14472;SDS011;7322;50.872;4.386;2023-07-29T06:50:11;2.17;;;1.40;;
14472;SDS011;7322;50.872;4.386;2023-07-29T06:52:38;1.33;;;1.23;;
14472;SDS011;7322;50.872;4.386;2023-07-29T06:55:05;2.85;;;1.20;;
14472;SDS011;7322;50.872;4.386;2023-07-29T06:57:33;2.38;;;1.35;;
14472;SDS011;7322;50.872;4.386;2023-07-29T07:00:00;3.55;;;1.55;;
14472;SDS011;7322;50.872;4.386;2023-07-29T07:02:27;5.20;;;1.80;;
14472;SDS011;7322;50.872;4.386;2023-07-29T07:04:55;5.28;;;1.90;;
14472;SDS011;7322;50.872;4.386;2023-07-29T07:07:23;6.47;;;1.95;;
14472;SDS011;7322;50.872;4.386;2023-07-29T07:09:53;4.43;;;1.90;;
14472;SDS011;7322;50.872;4.386;2023-07-29T07:12:33;5.95;;;2.25;;
14472;SDS011;7322;50.872;4.386;2023-07-29T07:15:07;6.38;;;1.90;;
14472;SDS011;7322;50.872;4.386;2023-07-29T07:17:42;4.93;;;1.98;;
14472;SDS011;7322;50.872;4.386;2023-07-29T07:20:11;4.85;;;1.98;;
14472;SDS011;7322;50.872;4.386;2023-07-29T07:22:45;5.50;;;1.90;;
14472;SDS011;7322;50.872;4.386;2023-07-29T07:25:13;6.80;;;2.00;;
14472;SDS011;7322;50.872;4.386;2023-07-29T07:27:41;5.40;;;1.85;;
14472;SDS011;7322;50.872;4.386;2023-07-29T07:30:18;3.92;;;1.52;;
14472;SDS011;7322;50.872;4.386;2023-07-29T07:32:46;2.38;;;1.58;;
14472;SDS011;7322;50.872;4.386;2023-07-29T07:35:16;4.82;;;1.48;;
14472;SDS011;7322;50.872;4.386;2023-07-29T07:41:00;4.38;;;1.92;;
14472;SDS011;7322;50.872;4.386;2023-07-29T07:46:36;4.53;;;1.60;;
14472;SDS011;7322;50.872;4.386;2023-07-29T07:49:03;5.10;;;1.95;;
14472;SDS011;7322;50.872;4.386;2023-07-29T07:51:30;3.95;;;1.60;;
14472;SDS011;7322;50.872;4.386;2023-07-29T07:53:57;2.60;;;1.63;;
14472;SDS011;7322;50.872;4.386;2023-07-29T07:56:26;3.50;;;1.45;;
14472;SDS011;7322;50.872;4.386;2023-07-29T07:58:53;3.15;;;1.83;;
14472;SDS011;7322;50.872;4.386;2023-07-29T08:01:19;3.70;;;1.40;;
14472;SDS011;7322;50.872;4.386;2023-07-29T08:03:46;2.75;;;1.50;;
14472;SDS011;7322;50.872;4.386;2023-07-29T08:06:13;3.60;;;1.60;;
14472;SDS011;7322;50.872;4.386;2023-07-29T08:08:40;4.05;;;1.38;;
14472;SDS011;7322;50.872;4.386;2023-07-29T08:11:07;3.75;;;1.58;;
14472;SDS011;7322;50.872;4.386;2023-07-29T08:13:36;3.08;;;1.55;;
14472;SDS011;7322;50.872;4.386;2023-07-29T08:16:03;2.72;;;1.55;;
14472;SDS011;7322;50.872;4.386;2023-07-29T08:18:30;2.50;;;1.35;;
14472;SDS011;7322;50.872;4.386;2023-07-29T08:20:59;3.45;;;1.70;;
14472;SDS011;7322;50.872;4.386;2023-07-29T08:23:28;4.05;;;1.77;;
14472;SDS011;7322;50.872;4.386;2023-07-29T08:25:56;4.50;;;1.58;;
14472;SDS011;7322;50.872;4.386;2023-07-29T08:28:26;2.83;;;1.35;;
14472;SDS011;7322;50.872;4.386;2023-07-29T08:30:55;4.20;;;1.35;;
14472;SDS011;7322;50.872;4.386;2023-07-29T08:33:22;3.20;;;1.48;;
14472;SDS011;7322;50.872;4.386;2023-07-29T08:35:49;4.32;;;1.80;;
14472;SDS011;7322;50.872;4.386;2023-07-29T08:38:16;2.58;;;1.48;;
14472;SDS011;7322;50.872;4.386;2023-07-29T08:40:45;1.83;;;1.20;;
14472;SDS011;7322;50.872;4.386;2023-07-29T08:43:28;3.03;;;1.50;;
14472;SDS011;7322;50.872;4.386;2023-07-29T08:45:58;2.97;;;1.50;;
14472;SDS011;7322;50.872;4.386;2023-07-29T08:48:29;2.70;;;1.23;;
14472;SDS011;7322;50.872;4.386;2023-07-29T08:50:59;1.83;;;1.20;;
14472;SDS011;7322;50.872;4.386;2023-07-29T08:53:35;1.40;;;1.30;;
14472;SDS011;7322;50.872;4.386;2023-07-29T08:56:03;2.08;;;1.42;;
14472;SDS011;7322;50.872;4.386;2023-07-29T08:58:31;1.90;;;1.27;;
14472;SDS011;7322;50.872;4.386;2023-07-29T09:01:00;2.63;;;1.30;;
14472;SDS011;7322;50.872;4.386;2023-07-29T09:03:27;2.35;;;1.27;;
14472;SDS011;7322;50.872;4.386;2023-07-29T09:05:54;2.60;;;1.10;;
14472;SDS011;7322;50.872;4.386;2023-07-29T09:08:23;2.58;;;1.50;;
14472;SDS011;7322;50.872;4.386;2023-07-29T09:10:52;3.28;;;1.40;;
14472;SDS011;7322;50.872;4.386;2023-07-29T09:13:25;4.18;;;1.52;;
14472;SDS011;7322;50.872;4.386;2023-07-29T09:15:58;2.88;;;1.40;;
14472;SDS011;7322;50.872;4.386;2023-07-29T09:18:27;2.72;;;1.45;;
14472;SDS011;7322;50.872;4.386;2023-07-29T09:21:00;4.78;;;1.75;;
14472;SDS011;7322;50.872;4.386;2023-07-29T09:23:42;2.42;;;1.50;;
14472;SDS011;7322;50.872;4.386;2023-07-29T09:29:09;4.07;;;1.58;;
14472;SDS011;7322;50.872;4.386;2023-07-29T09:31:40;6.70;;;1.55;;
14472;SDS011;7322;50.872;4.386;2023-07-29T09:34:15;4.55;;;2.00;;
14472;SDS011;7322;50.872;4.386;2023-07-29T09:36:44;4.22;;;1.60;;
14472;SDS011;7322;50.872;4.386;2023-07-29T09:39:11;4.53;;;1.80;;
14472;SDS011;7322;50.872;4.386;2023-07-29T09:44:26;5.38;;;1.85;;
14472;SDS011;7322;50.872;4.386;2023-07-29T09:47:03;2.33;;;1.48;;
14472;SDS011;7322;50.872;4.386;2023-07-29T09:49:34;4.40;;;1.95;;
14472;SDS011;7322;50.872;4.386;2023-07-29T09:52:03;3.42;;;1.70;;
14472;SDS011;7322;50.872;4.386;2023-07-29T09:54:35;2.75;;;1.55;;
14472;SDS011;7322;50.872;4.386;2023-07-29T09:57:18;4.03;;;1.70;;
14472;SDS011;7322;50.872;4.386;2023-07-29T09:59:53;5.22;;;1.70;;
14472;SDS011;7322;50.872;4.386;2023-07-29T10:02:21;2.83;;;1.50;;
14472;SDS011;7322;50.872;4.386;2023-07-29T10:07:28;4.07;;;1.45;;
14472;SDS011;7322;50.872;4.386;2023-07-29T10:09:58;3.33;;;2.17;;
14472;SDS011;7322;50.872;4.386;2023-07-29T10:12:27;3.25;;;1.90;;
14472;SDS011;7322;50.872;4.386;2023-07-29T10:14:58;2.92;;;1.70;;
14472;SDS011;7322;50.872;4.386;2023-07-29T10:17:28;2.97;;;1.52;;
14472;SDS011;7322;50.872;4.386;2023-07-29T10:19:57;2.40;;;1.67;;
14472;SDS011;7322;50.872;4.386;2023-07-29T10:22:25;2.58;;;1.75;;
14472;SDS011;7322;50.872;4.386;2023-07-29T10:24:56;3.17;;;1.50;;
14472;SDS011;7322;50.872;4.386;2023-07-29T10:27:33;2.15;;;1.40;;
14472;SDS011;7322;50.872;4.386;2023-07-29T10:30:14;2.13;;;1.63;;
14472;SDS011;7322;50.872;4.386;2023-07-29T10:32:45;2.40;;;1.63;;
14472;SDS011;7322;50.872;4.386;2023-07-29T10:35:12;3.00;;;1.70;;
14472;SDS011;7322;50.872;4.386;2023-07-29T10:37:40;3.72;;;1.63;;
14472;SDS011;7322;50.872;4.386;2023-07-29T10:40:08;1.63;;;1.40;;
14472;SDS011;7322;50.872;4.386;2023-07-29T10:42:36;2.67;;;1.40;;
14472;SDS011;7322;50.872;4.386;2023-07-29T10:45:16;1.75;;;1.58;;
14472;SDS011;7322;50.872;4.386;2023-07-29T10:47:47;2.33;;;1.52;;
14472;SDS011;7322;50.872;4.386;2023-07-29T10:50:18;2.95;;;1.40;;
14472;SDS011;7322;50.872;4.386;2023-07-29T10:52:52;9.63;;;1.90;;
14472;SDS011;7322;50.872;4.386;2023-07-29T10:55:27;1.95;;;1.48;;
14472;SDS011;7322;50.872;4.386;2023-07-29T11:00:51;3.92;;;1.60;;
14472;SDS011;7322;50.872;4.386;2023-07-29T11:06:26;3.22;;;1.67;;
14472;SDS011;7322;50.872;4.386;2023-07-29T11:08:54;2.10;;;1.58;;
14472;SDS011;7322;50.872;4.386;2023-07-29T11:11:21;2.60;;;1.80;;
14472;SDS011;7322;50.872;4.386;2023-07-29T11:13:53;3.92;;;2.38;;
14472;SDS011;7322;50.872;4.386;2023-07-29T11:19:09;6.75;;;2.33;;
14472;SDS011;7322;50.872;4.386;2023-07-29T11:21:44;2.70;;;2.08;;
14472;SDS011;7322;50.872;4.386;2023-07-29T11:24:11;3.70;;;1.70;;
14472;SDS011;7322;50.872;4.386;2023-07-29T11:26:46;2.70;;;2.33;;
14472;SDS011;7322;50.872;4.386;2023-07-29T11:29:13;3.80;;;2.17;;
14472;SDS011;7322;50.872;4.386;2023-07-29T11:31:42;4.75;;;2.13;;
14472;SDS011;7322;50.872;4.386;2023-07-29T11:34:10;3.30;;;2.22;;
14472;SDS011;7322;50.872;4.386;2023-07-29T11:36:43;6.60;;;2.53;;
14472;SDS011;7322;50.872;4.386;2023-07-29T11:39:12;6.90;;;3.03;;
14472;SDS011;7322;50.872;4.386;2023-07-29T11:41:39;8.40;;;3.00;;
14472;SDS011;7322;50.872;4.386;2023-07-29T11:44:09;7.80;;;2.90;;
14472;SDS011;7322;50.872;4.386;2023-07-29T11:46:42;6.93;;;3.25;;
14472;SDS011;7322;50.872;4.386;2023-07-29T11:49:11;10.93;;;2.80;;
14472;SDS011;7322;50.872;4.386;2023-07-29T11:51:38;8.57;;;3.10;;
14472;SDS011;7322;50.872;4.386;2023-07-29T11:54:05;8.02;;;3.60;;
14472;SDS011;7322;50.872;4.386;2023-07-29T11:56:33;8.88;;;3.00;;
14472;SDS011;7322;50.872;4.386;2023-07-29T11:59:05;8.45;;;2.70;;
14472;SDS011;7322;50.872;4.386;2023-07-29T12:01:33;7.38;;;2.70;;
14472;SDS011;7322;50.872;4.386;2023-07-29T12:04:00;8.80;;;3.03;;
14472;SDS011;7322;50.872;4.386;2023-07-29T12:06:28;8.45;;;2.65;;
14472;SDS011;7322;50.872;4.386;2023-07-29T12:08:56;10.70;;;3.20;;
14472;SDS011;7322;50.872;4.386;2023-07-29T12:11:23;7.97;;;3.05;;
14472;SDS011;7322;50.872;4.386;2023-07-29T12:13:50;10.10;;;2.97;;
14472;SDS011;7322;50.872;4.386;2023-07-29T12:16:20;7.95;;;3.13;;
14472;SDS011;7322;50.872;4.386;2023-07-29T12:18:46;5.85;;;2.40;;
14472;SDS011;7322;50.872;4.386;2023-07-29T12:21:16;4.10;;;2.58;;
14472;SDS011;7322;50.872;4.386;2023-07-29T12:23:46;2.47;;;2.25;;
14472;SDS011;7322;50.872;4.386;2023-07-29T12:26:13;4.90;;;2.70;;
14472;SDS011;7322;50.872;4.386;2023-07-29T12:28:44;4.00;;;2.72;;
14472;SDS011;7322;50.872;4.386;2023-07-29T12:31:12;4.75;;;2.65;;
14472;SDS011;7322;50.872;4.386;2023-07-29T12:33:39;4.53;;;2.80;;
14472;SDS011;7322;50.872;4.386;2023-07-29T12:36:07;5.40;;;2.65;;
14472;SDS011;7322;50.872;4.386;2023-07-29T12:38:35;4.60;;;2.40;;
14472;SDS011;7322;50.872;4.386;2023-07-29T12:41:04;3.13;;;2.55;;
14472;SDS011;7322;50.872;4.386;2023-07-29T12:43:31;4.20;;;2.60;;
14472;SDS011;7322;50.872;4.386;2023-07-29T12:46:00;4.55;;;2.65;;
14472;SDS011;7322;50.872;4.386;2023-07-29T12:48:27;4.68;;;2.85;;
14472;SDS011;7322;50.872;4.386;2023-07-29T12:50:54;3.85;;;2.67;;
14472;SDS011;7322;50.872;4.386;2023-07-29T12:53:21;6.75;;;2.90;;
14472;SDS011;7322;50.872;4.386;2023-07-29T12:55:48;4.00;;;2.55;;
14472;SDS011;7322;50.872;4.386;2023-07-29T12:58:17;4.07;;;2.45;;
14472;SDS011;7322;50.872;4.386;2023-07-29T13:00:44;2.55;;;2.33;;
14472;SDS011;7322;50.872;4.386;2023-07-29T13:03:10;4.38;;;2.38;;
14472;SDS011;7322;50.872;4.386;2023-07-29T13:05:37;7.45;;;2.78;;
14472;SDS011;7322;50.872;4.386;2023-07-29T13:08:04;2.30;;;1.92;;
14472;SDS011;7322;50.872;4.386;2023-07-29T13:10:31;3.13;;;2.22;;
14472;SDS011;7322;50.872;4.386;2023-07-29T13:12:58;2.38;;;2.17;;
14472;SDS011;7322;50.872;4.386;2023-07-29T13:15:27;3.03;;;2.40;;
14472;SDS011;7322;50.872;4.386;2023-07-29T13:17:53;2.47;;;2.25;;
14472;SDS011;7322;50.872;4.386;2023-07-29T13:20:20;4.65;;;2.30;;
14472;SDS011;7322;50.872;4.386;2023-07-29T13:22:47;2.88;;;2.60;;
14472;SDS011;7322;50.872;4.386;2023-07-29T13:25:14;3.38;;;2.00;;
14472;SDS011;7322;50.872;4.386;2023-07-29T13:27:41;3.28;;;2.38;;
14472;SDS011;7322;50.872;4.386;2023-07-29T13:30:08;2.35;;;2.15;;
14472;SDS011;7322;50.872;4.386;2023-07-29T13:32:37;2.38;;;1.92;;
14472;SDS011;7322;50.872;4.386;2023-07-29T13:35:04;2.15;;;1.95;;
14472;SDS011;7322;50.872;4.386;2023-07-29T13:37:32;2.28;;;2.00;;
14472;SDS011;7322;50.872;4.386;2023-07-29T13:40:00;2.20;;;2.00;;
14472;SDS011;7322;50.872;4.386;2023-07-29T13:42:27;2.72;;;2.45;;
14472;SDS011;7322;50.872;4.386;2023-07-29T13:44:53;2.28;;;2.08;;
14472;SDS011;7322;50.872;4.386;2023-07-29T13:47:20;2.10;;;1.90;;
14472;SDS011;7322;50.872;4.386;2023-07-29T13:49:48;3.22;;;2.22;;
14472;SDS011;7322;50.872;4.386;2023-07-29T13:52:15;2.08;;;1.95;;
14472;SDS011;7322;50.872;4.386;2023-07-29T13:54:42;2.13;;;2.03;;
14472;SDS011;7322;50.872;4.386;2023-07-29T13:57:08;2.10;;;1.90;;
14472;SDS011;7322;50.872;4.386;2023-07-29T13:59:35;2.42;;;2.22;;
14472;SDS011;7322;50.872;4.386;2023-07-29T14:02:03;2.58;;;2.03;;
14472;SDS011;7322;50.872;4.386;2023-07-29T14:04:31;3.05;;;2.05;;
14472;SDS011;7322;50.872;4.386;2023-07-29T14:07:00;3.05;;;2.10;;
14472;SDS011;7322;50.872;4.386;2023-07-29T14:09:27;2.30;;;1.75;;
14472;SDS011;7322;50.872;4.386;2023-07-29T14:11:54;1.80;;;1.70;;
14472;SDS011;7322;50.872;4.386;2023-07-29T14:14:21;2.13;;;1.90;;
14472;SDS011;7322;50.872;4.386;2023-07-29T14:16:48;4.43;;;1.80;;
14472;SDS011;7322;50.872;4.386;2023-07-29T14:19:15;2.92;;;1.85;;
14472;SDS011;7322;50.872;4.386;2023-07-29T14:21:42;2.03;;;1.83;;
14472;SDS011;7322;50.872;4.386;2023-07-29T14:24:10;2.33;;;1.67;;
14472;SDS011;7322;50.872;4.386;2023-07-29T14:26:37;1.83;;;1.67;;
14472;SDS011;7322;50.872;4.386;2023-07-29T14:29:04;1.80;;;1.70;;
14472;SDS011;7322;50.872;4.386;2023-07-29T14:31:31;2.17;;;1.50;;
14472;SDS011;7322;50.872;4.386;2023-07-29T14:33:58;3.38;;;1.90;;
14472;SDS011;7322;50.872;4.386;2023-07-29T14:36:26;1.83;;;1.48;;
14472;SDS011;7322;50.872;4.386;2023-07-29T14:38:52;2.30;;;1.75;;
14472;SDS011;7322;50.872;4.386;2023-07-29T14:41:26;1.70;;;1.60;;
14472;SDS011;7322;50.872;4.386;2023-07-29T14:43:53;2.45;;;1.67;;
14472;SDS011;7322;50.872;4.386;2023-07-29T14:46:20;1.73;;;1.63;;
14472;SDS011;7322;50.872;4.386;2023-07-29T14:48:47;1.52;;;1.42;;
14472;SDS011;7322;50.872;4.386;2023-07-29T14:51:14;1.73;;;1.40;;
14472;SDS011;7322;50.872;4.386;2023-07-29T14:53:41;1.58;;;1.42;;
14472;SDS011;7322;50.872;4.386;2023-07-29T14:56:08;1.50;;;1.40;;
14472;SDS011;7322;50.872;4.386;2023-07-29T14:58:37;2.00;;;1.73;;
14472;SDS011;7322;50.872;4.386;2023-07-29T15:01:04;2.17;;;1.67;;
14472;SDS011;7322;50.872;4.386;2023-07-29T15:03:31;1.70;;;1.60;;
14472;SDS011;7322;50.872;4.386;2023-07-29T15:05:58;1.88;;;1.70;;
14472;SDS011;7322;50.872;4.386;2023-07-29T15:08:25;1.98;;;1.80;;
14472;SDS011;7322;50.872;4.386;2023-07-29T15:10:52;2.20;;;2.00;;
14472;SDS011;7322;50.872;4.386;2023-07-29T15:13:21;1.95;;;1.60;;
14472;SDS011;7322;50.872;4.386;2023-07-29T15:15:49;4.30;;;1.77;;
14472;SDS011;7322;50.872;4.386;2023-07-29T15:18:16;2.97;;;1.90;;
14472;SDS011;7322;50.872;4.386;2023-07-29T15:20:43;2.15;;;1.40;;
14472;SDS011;7322;50.872;4.386;2023-07-29T15:23:10;2.60;;;1.52;;
14472;SDS011;7322;50.872;4.386;2023-07-29T15:25:38;2.55;;;1.52;;
14472;SDS011;7322;50.872;4.386;2023-07-29T15:28:05;1.60;;;1.50;;
14472;SDS011;7322;50.872;4.386;2023-07-29T15:30:33;2.20;;;1.83;;
14472;SDS011;7322;50.872;4.386;2023-07-29T15:33:03;1.67;;;1.50;;